Time;durP1;ratioP1;P1;durP2;ratioP2;P2;SDS_P1;SDS_P2;PMS_P1;PMS_P2;Temp;Humidity;BMP_temperature;BMP_pressure;BME280_temperature;BME280_humidity;BME280_pressure;Samples;Min_cycle;Max_cycle;Signal;HPM_P1;HPM_P2
2023/06/13 00:00:23;;;;;;;5.90;4.03;;;;;;;13.07;65.15;96897.78;5025910;28;20655;-60
2023/06/13 00:02:50;;;;;;;6.32;3.70;;;;;;;12.97;65.36;96893.25;5026304;28;20069;-60
2023/06/13 00:05:18;;;;;;;5.72;3.63;;;;;;;12.95;65.58;96889.97;5026217;28;20068;-60
2023/06/13 00:07:45;;;;;;;6.53;3.92;;;;;;;12.65;66.03;96886.31;5028698;28;20044;-60
2023/06/13 00:10:13;;;;;;;6.03;3.50;;;;;;;12.78;66.58;96888.41;5026956;28;20586;-60
2023/06/13 00:12:41;;;;;;;5.40;3.55;;;;;;;12.63;67.28;96888.50;5029234;28;20041;-60
2023/06/13 00:15:10;;;;;;;6.57;4.10;;;;;;;12.58;67.29;96890.13;5032213;28;20128;-61
2023/06/13 00:17:38;;;;;;;6.03;3.72;;;;;;;12.53;68.19;96883.91;5029603;28;20426;-60
2023/06/13 00:20:08;;;;;;;5.07;3.40;;;;;;;12.54;67.56;96890.97;5034230;28;20526;-61
2023/06/13 00:22:35;;;;;;;6.93;3.75;;;;;;;12.56;67.80;96889.59;5035414;28;20037;-61
2023/06/13 00:25:02;;;;;;;7.18;3.70;;;;;;;12.54;68.33;96889.06;5031643;28;20041;-60
2023/06/13 00:27:31;;;;;;;5.95;3.38;;;;;;;12.39;69.31;96889.94;5031514;28;20420;-61
2023/06/13 00:29:57;;;;;;;7.15;3.33;;;;;;;12.33;69.08;96889.13;5031551;28;20037;-60
2023/06/13 00:32:26;;;;;;;6.60;3.88;;;;;;;12.20;69.77;96890.50;5031858;28;20526;-60
2023/06/13 00:34:55;;;;;;;7.35;3.85;;;;;;;12.26;69.71;96882.34;5031347;28;20040;-60
2023/06/13 00:37:22;;;;;;;6.63;3.67;;;;;;;12.23;69.53;96884.53;5033166;28;20045;-59
2023/06/13 00:39:49;;;;;;;7.38;3.80;;;;;;;12.24;69.65;96879.91;5030470;28;20470;-60
2023/06/13 00:42:15;;;;;;;6.47;4.00;;;;;;;12.26;69.10;96885.03;5032247;28;20076;-60
2023/06/13 00:44:42;;;;;;;7.35;4.15;;;;;;;12.28;69.49;96882.88;5026214;28;20413;-60
2023/06/13 00:47:13;;;;;;;5.63;3.53;;;;;;;12.06;70.82;96879.38;5025833;28;20076;-60
2023/06/13 00:49:41;;;;;;;;;;;;;;;11.97;71.57;96886.44;5030417;28;20124;-60
2023/06/13 00:52:08;;;;;;;6.13;3.90;;;;;;;11.86;72.47;96876.69;5029289;28;19925;-59
2023/06/13 00:54:37;;;;;;;7.10;4.07;;;;;;;11.86;71.41;96871.25;5031783;28;20432;-59
2023/06/13 00:57:08;;;;;;;6.35;3.75;;;;;;;11.73;72.47;96878.88;5028987;28;20049;-60
2023/06/13 00:59:35;;;;;;;8.13;3.70;;;;;;;11.73;72.39;96872.63;5031078;28;20230;-59
2023/06/13 01:02:03;;;;;;;6.25;3.67;;;;;;;11.71;72.18;96875.59;5030741;28;20334;-60
2023/06/13 01:04:30;;;;;;;8.23;4.00;;;;;;;11.52;73.11;96883.44;5024951;28;20093;-61
2023/06/13 01:06:57;;;;;;;6.55;3.90;;;;;;;11.49;74.17;96876.66;5029606;28;20045;-60
2023/06/13 01:09:24;;;;;;;6.43;4.43;;;;;;;11.65;73.22;96873.97;5032739;28;20045;-60
2023/06/13 01:12:08;;;;;;;6.22;3.67;;;;;;;11.37;75.01;96876.94;5031077;28;20029;-60
2023/06/13 01:14:55;;;;;;;5.50;3.55;;;;;;;11.42;74.60;96870.69;5030460;28;20475;-60
2023/06/13 01:17:26;;;;;;;6.22;3.88;;;;;;;11.28;75.59;96871.22;5032148;28;20041;-60
2023/06/13 01:19:58;;;;;;;7.00;3.85;;;;;;;11.19;75.90;96865.53;5027967;28;20049;-60
2023/06/13 01:22:35;;;;;;;6.10;4.07;;;;;;;11.15;75.98;96864.44;5026164;28;20037;-60
2023/06/13 01:25:20;;;;;;;6.20;3.78;;;;;;;11.13;76.71;96863.09;5034816;28;20463;-61
2023/06/13 01:27:49;;;;;;;6.72;3.60;;;;;;;11.12;76.39;96862.25;5032593;28;20040;-60
2023/06/13 01:30:18;;;;;;;10.02;4.22;;;;;;;11.18;76.23;96866.59;5025083;28;20045;-60
2023/06/13 01:32:50;;;;;;;7.72;3.72;;;;;;;11.18;76.10;96866.59;5030949;28;20558;-60
2023/06/13 01:35:17;;;;;;;6.57;4.05;;;;;;;11.10;76.25;96858.19;5026901;28;20049;-60
2023/06/13 01:37:45;;;;;;;9.23;4.60;;;;;;;10.91;77.08;96858.72;5035115;28;20534;-60
2023/06/13 01:40:14;;;;;;;8.05;3.60;;;;;;;10.96;76.61;96856.00;5030754;28;20158;-59
2023/06/13 01:42:41;;;;;;;6.35;3.88;;;;;;;10.77;77.88;96853.78;5027212;28;20076;-59
2023/06/13 01:45:09;;;;;;;8.45;4.43;;;;;;;10.83;78.28;96851.09;5030826;28;20071;-59
2023/06/13 01:48:03;;;;;;;5.72;3.17;;;;;;;10.87;77.58;96852.19;5028778;28;20542;-60
2023/06/13 01:50:52;;;;;;;6.78;4.28;;;;;;;10.88;77.35;96846.50;5028529;28;20076;-60
2023/06/13 01:53:27;;;;;;;5.20;3.20;;;;;;;10.63;79.30;96855.34;5024532;28;20037;-60
2023/06/13 01:56:00;;;;;;;8.13;3.88;;;;;;;10.63;79.38;96845.34;5024707;28;20132;-60
2023/06/13 01:58:34;;;;;;;6.75;3.92;;;;;;;10.57;79.77;96840.19;5030343;28;20136;-59
2023/06/13 02:01:04;;;;;;;6.45;4.15;;;;;;;10.29;81.36;96845.72;5026287;28;20571;-59
2023/06/13 02:03:31;;;;;;;7.03;4.20;;;;;;;10.30;81.46;96841.09;5024486;28;20148;-60
2023/06/13 02:05:58;;;;;;;6.40;3.95;;;;;;;10.35;81.04;96843.81;5025937;28;20045;-60
2023/06/13 02:08:26;;;;;;;7.95;4.05;;;;;;;10.45;80.58;96843.09;5026460;28;20037;-60
2023/06/13 02:10:53;;;;;;;6.45;3.45;;;;;;;10.36;80.79;96845.47;5030010;28;20393;-59
2023/06/13 02:13:19;;;;;;;5.90;3.53;;;;;;;10.11;82.29;96836.16;5029587;28;20037;-60
2023/06/13 02:15:46;;;;;;;6.47;3.85;;;;;;;10.17;82.57;96842.41;5030517;28;20046;-60
2023/06/13 02:18:13;;;;;;;6.80;3.90;;;;;;;10.07;83.02;96841.28;5027756;28;20815;-59
2023/06/13 02:20:39;;;;;;;5.85;3.53;;;;;;;10.05;83.48;96842.59;5030527;28;20136;-60
2023/06/13 02:23:06;;;;;;;8.48;4.30;;;;;;;9.96;83.17;96832.28;5025358;28;20037;-59
2023/06/13 02:25:33;;;;;;;6.00;3.53;;;;;;;9.84;84.41;96832.47;5029418;28;20099;-59
2023/06/13 02:28:00;;;;;;;7.50;4.22;;;;;;;9.94;84.12;96837.13;5030519;28;20123;-60
2023/06/13 02:30:26;;;;;;;6.22;4.30;;;;;;;10.02;82.80;96836.63;5026006;28;20048;-59
2023/06/13 02:32:53;;;;;;;5.70;3.40;;;;;;;9.92;83.51;96843.88;5030158;28;20030;-59
2023/06/13 02:35:23;;;;;;;7.00;3.75;;;;;;;9.74;84.59;96844.03;5031629;28;20289;-60
2023/06/13 02:37:53;;;;;;;7.22;4.18;;;;;;;9.72;84.62;96843.47;5027041;28;20044;-59
2023/06/13 02:40:21;;;;;;;6.87;3.83;;;;;;;9.59;85.80;96843.91;5023718;28;20052;-59
2023/06/13 02:42:54;;;;;;;6.32;3.97;;;;;;;9.74;84.62;96841.31;5029735;28;20055;-60
2023/06/13 02:45:21;;;;;;;6.15;3.78;;;;;;;9.59;85.56;96843.91;5023548;28;20117;-60
2023/06/13 02:47:47;;;;;;;6.97;3.60;;;;;;;9.67;85.26;96845.31;5026442;28;20132;-59
2023/06/13 02:50:14;;;;;;;8.18;4.60;;;;;;;9.81;84.24;96849.22;5025894;28;20128;-60
2023/06/13 02:52:41;;;;;;;8.13;4.05;;;;;;;10.01;83.96;96850.41;5027188;28;20095;-60
2023/06/13 02:55:10;;;;;;;6.82;3.70;;;;;;;9.81;83.51;96843.81;5028242;28;20041;-61
2023/06/13 02:57:37;;;;;;;6.93;4.15;;;;;;;9.71;84.55;96843.72;5025408;28;20082;-60
2023/06/13 03:00:09;;;;;;;6.85;4.25;;;;;;;9.61;84.96;96848.00;5022509;28;20530;-60
2023/06/13 03:02:39;;;;;;;7.18;4.05;;;;;;;9.63;84.55;96842.34;5024504;28;20038;-59
2023/06/13 03:05:09;;;;;;;9.35;4.10;;;;;;;9.33;86.27;96836.41;5025845;28;20231;-60
2023/06/13 03:07:42;;;;;;;7.35;4.13;;;;;;;9.19;87.32;96846.00;5026952;28;20049;-60
2023/06/13 03:10:10;;;;;;;7.13;4.75;;;;;;;9.37;86.86;96847.53;5027690;28;20556;-59
2023/06/13 03:12:40;;;;;;;9.38;3.97;;;;;;;9.36;87.13;96841.31;5028068;28;20145;-60
2023/06/13 03:15:07;;;;;;;7.00;3.90;;;;;;;9.42;86.31;96847.56;5024968;28;20267;-60
2023/06/13 03:17:34;;;;;;;7.35;4.25;;;;;;;9.22;87.63;96848.22;5029934;28;20041;-59
2023/06/13 03:20:06;;;;;;;6.22;4.05;;;;;;;9.21;88.15;96839.28;5027828;28;20126;-60
2023/06/13 03:22:34;;;;;;;;;;;;;;;9.04;89.05;96847.50;5027194;28;20496;-60
2023/06/13 03:25:04;;;;;;;7.22;4.10;;;;;;;8.93;89.28;96854.69;5026875;28;19964;-60
2023/06/13 03:27:37;;;;;;;6.43;4.07;;;;;;;8.92;90.41;96854.94;5026136;28;20038;-60
2023/06/13 03:30:05;;;;;;;6.90;3.97;;;;;;;8.96;89.59;96858.78;5028953;28;20041;-60
2023/06/13 03:32:31;;;;;;;6.95;4.22;;;;;;;9.18;88.74;96861.41;5027547;28;20084;-60
2023/06/13 03:35:00;;;;;;;7.28;4.40;;;;;;;9.31;88.10;96864.75;5026659;28;20034;-60
2023/06/13 03:37:26;;;;;;;7.50;4.32;;;;;;;9.19;87.81;96875.72;5026232;28;20103;-59
2023/06/13 03:39:53;;;;;;;6.10;3.95;;;;;;;9.23;88.71;96869.56;5023311;28;20072;-60
2023/06/13 03:42:20;;;;;;;7.72;3.88;;;;;;;9.18;88.93;96872.19;5023245;28;20033;-60
2023/06/13 03:44:48;;;;;;;5.95;3.83;;;;;;;9.22;89.14;96867.91;5024596;28;20045;-60
2023/06/13 03:47:15;;;;;;;7.32;4.00;;;;;;;9.29;88.71;96873.13;5029648;28;20049;-60
2023/06/13 03:49:43;;;;;;;7.50;4.10;;;;;;;9.19;89.47;96875.72;5026547;28;20519;-59
2023/06/13 03:52:10;;;;;;;8.45;4.55;;;;;;;9.52;87.51;96883.84;5029218;28;20037;-61
2023/06/13 03:54:37;;;;;;;7.32;4.30;;;;;;;9.52;86.96;96881.97;5030477;28;20037;-60
2023/06/13 03:57:04;;;;;;;7.60;4.55;;;;;;;9.51;87.32;96874.91;5026802;28;20133;-60
2023/06/13 03:59:30;;;;;;;7.03;4.50;;;;;;;9.45;87.58;96879.50;5029676;28;20045;-60
2023/06/13 04:01:57;;;;;;;7.50;3.95;;;;;;;9.45;87.63;96884.91;5027906;28;20040;-60
2023/06/13 04:04:26;;;;;;;7.03;4.13;;;;;;;9.34;88.65;96889.41;5028492;28;20815;-60
2023/06/13 04:06:55;;;;;;;6.95;4.35;;;;;;;9.43;88.72;96891.63;5034474;28;20040;-60
2023/06/13 04:09:23;;;;;;;6.65;4.00;;;;;;;9.31;89.68;96894.47;5030166;28;20037;-60
2023/06/13 04:11:49;;;;;;;6.68;4.07;;;;;;;9.37;89.29;96890.75;5027850;28;20496;-60
2023/06/13 04:14:16;;;;;;;6.53;3.95;;;;;;;9.56;88.90;96896.63;5029512;28;20037;-60
2023/06/13 04:16:43;;;;;;;7.63;3.88;;;;;;;9.68;87.95;96904.53;5033347;28;20041;-59
2023/06/13 04:19:10;;;;;;;6.43;3.58;;;;;;;10.01;85.93;96899.09;5031088;28;20144;-60
2023/06/13 04:21:37;;;;;;;9.93;4.25;;;;;;;10.07;85.78;96891.84;5030226;28;20061;-59
2023/06/13 04:24:04;;;;;;;6.65;3.72;;;;;;;10.09;86.08;96898.63;5026399;28;20046;-60
2023/06/13 04:26:31;;;;;;;6.30;3.90;;;;;;;9.97;87.31;96893.41;5030162;28;20045;-60
2023/06/13 04:28:58;;;;;;;8.27;4.75;;;;;;;10.10;86.92;96896.75;5035407;28;20036;-60
2023/06/13 04:31:25;;;;;;;10.10;4.40;;;;;;;10.23;87.28;96903.56;5024959;28;20063;-60
2023/06/13 04:33:55;;;;;;;7.70;4.07;;;;;;;10.52;86.39;96901.34;5028054;28;20140;-60
2023/06/13 04:36:24;;;;;;;6.78;3.95;;;;;;;10.60;85.62;96902.72;5026241;28;20056;-59
2023/06/13 04:38:53;;;;;;;6.03;3.88;;;;;;;10.70;85.17;96898.44;5027260;28;20413;-60
2023/06/13 04:41:19;;;;;;;11.73;4.43;;;;;;;10.59;86.54;96905.69;5030782;28;20044;-60
2023/06/13 04:43:46;;;;;;;7.50;4.18;;;;;;;10.83;86.04;96913.38;5033416;28;20065;-60
2023/06/13 04:46:18;;;;;;;6.13;4.00;;;;;;;10.86;86.37;96910.94;5033325;28;20075;-60
2023/06/13 04:48:45;;;;;;;8.30;4.20;;;;;;;11.05;85.42;96921.28;5028614;28;20049;-60
2023/06/13 04:51:12;;;;;;;12.25;3.78;;;;;;;11.13;88.16;96920.78;5033303;28;20083;-60
2023/06/13 04:53:42;;;;;;;7.95;4.38;;;;;;;11.37;86.73;96923.03;5034403;28;20072;-60
2023/06/13 04:56:08;;;;;;;6.43;3.80;;;;;;;11.61;84.23;96927.13;5030669;28;20074;-61
2023/06/13 04:58:35;;;;;;;7.13;4.03;;;;;;;11.84;82.23;96914.94;5028403;28;20037;-61
2023/06/13 05:01:02;;;;;;;5.68;3.58;;;;;;;12.01;81.50;96911.94;5035553;28;20119;-60
2023/06/13 05:03:29;;;;;;;6.30;4.00;;;;;;;12.28;77.90;96912.75;5031054;28;20095;-61
2023/06/13 05:05:55;;;;;;;9.30;4.18;;;;;;;12.41;80.59;96916.78;5035613;28;20076;-60
2023/06/13 05:08:22;;;;;;;8.13;3.90;;;;;;;12.57;78.66;96914.84;5026693;28;20515;-60
2023/06/13 05:10:48;;;;;;;6.95;3.70;;;;;;;12.71;77.26;96915.06;5031574;28;20120;-61
2023/06/13 05:13:15;;;;;;;5.93;3.53;;;;;;;12.91;77.47;96921.50;5029814;28;20492;-61
2023/06/13 05:15:45;;;;;;;8.00;3.67;;;;;;;13.16;73.57;96920.56;5028872;28;20540;-61
2023/06/13 05:18:14;;;;;;;8.20;3.90;;;;;;;13.36;71.15;96922.38;5027590;28;20208;-61
2023/06/13 05:20:43;;;;;;;8.13;3.20;;;;;;;13.78;68.71;96919.38;5031211;28;20045;-62
2023/06/13 05:23:10;;;;;;;8.00;3.25;;;;;;;14.14;66.70;96921.81;5026499;28;20597;-62
2023/06/13 05:25:37;;;;;;;6.40;3.50;;;;;;;14.37;66.51;96916.69;5026275;28;20045;-61
2023/06/13 05:28:03;;;;;;;8.13;4.13;;;;;;;14.57;64.55;96917.59;5027682;28;20045;-61
2023/06/13 05:30:30;;;;;;;6.15;2.92;;;;;;;14.75;63.38;96912.50;5027545;28;20041;-61
2023/06/13 05:32:57;;;;;;;7.78;3.78;;;;;;;14.84;62.54;96916.22;5027561;28;20447;-61
2023/06/13 05:35:23;;;;;;;9.23;4.38;;;;;;;14.92;64.05;96917.47;5031545;28;20069;-62
2023/06/13 05:37:51;;;;;;;15.30;4.40;;;;;;;15.00;62.11;96908.66;5033245;28;20629;-61
2023/06/13 05:40:18;;;;;;;6.18;2.92;;;;;;;15.05;61.44;96910.50;5028419;28;20464;-62
2023/06/13 05:42:45;;;;;;;8.60;2.88;;;;;;;15.18;59.76;96917.16;5025785;28;20492;-61
2023/06/13 05:45:11;;;;;;;7.10;2.47;;;;;;;15.27;59.62;96920.03;5030656;28;20045;-61
2023/06/13 05:47:38;;;;;;;5.30;2.60;;;;;;;15.32;58.58;96912.59;5028155;28;20041;-61
2023/06/13 05:50:05;;;;;;;6.20;2.50;;;;;;;15.45;57.09;96919.22;5031658;28;20455;-61
2023/06/13 05:52:32;;;;;;;6.13;2.63;;;;;;;15.56;57.37;96922.63;5027906;28;20029;-61
2023/06/13 05:54:59;;;;;;;6.18;2.83;;;;;;;15.69;56.97;96925.72;5028920;28;20041;-62
2023/06/13 05:57:43;;;;;;;6.45;2.80;;;;;;;15.80;55.84;96921.72;5030915;28;20037;-61
2023/06/13 06:00:13;;;;;;;6.22;2.53;;;;;;;15.95;55.33;96917.97;5027496;28;20045;-62
2023/06/13 06:02:43;;;;;;;5.20;2.60;;;;;;;15.90;50.52;96912.56;5028999;28;20036;-62
2023/06/13 06:05:11;;;;;;;7.25;3.00;;;;;;;16.04;51.94;96911.81;5030904;28;20621;-62
2023/06/13 06:07:38;;;;;;;4.60;2.50;;;;;;;16.15;51.06;96913.28;5032428;28;20042;-61
2023/06/13 06:10:05;;;;;;;6.63;2.78;;;;;;;16.33;49.69;96902.59;5032639;28;20045;-60
2023/06/13 06:12:32;;;;;;;4.68;2.03;;;;;;;16.42;48.92;96902.69;5027549;28;20060;-62
2023/06/13 06:15:00;;;;;;;7.07;2.42;;;;;;;16.44;48.12;96909.47;5029791;28;20037;-61
2023/06/13 06:17:26;;;;;;;5.28;2.95;;;;;;;16.52;48.84;96903.28;5031227;28;20041;-61
2023/06/13 06:19:53;;;;;;;5.63;2.05;;;;;;;16.57;46.96;96909.78;5033238;28;20429;-62
2023/06/13 06:22:19;;;;;;;9.15;2.30;;;;;;;16.57;47.43;96910.59;5032742;28;20417;-61
2023/06/13 06:24:46;;;;;;;8.57;2.92;;;;;;;16.73;47.63;96910.31;5030010;28;20049;-62
2023/06/13 06:27:13;;;;;;;10.77;2.90;;;;;;;16.75;46.54;96899.88;5028333;28;20056;-62
2023/06/13 06:29:42;;;;;;;5.30;2.40;;;;;;;16.80;46.84;96912.63;5027693;28;20037;-62
2023/06/13 06:32:09;;;;;;;4.95;2.38;;;;;;;16.90;46.58;96913.25;5026418;28;20060;-62
2023/06/13 06:34:36;;;;;;;6.70;2.92;;;;;;;16.87;44.73;96907.56;5028609;28;20041;-61
2023/06/13 06:37:04;;;;;;;4.93;2.28;;;;;;;16.92;45.46;96912.13;5028625;28;20088;-61
2023/06/13 06:39:31;;;;;;;5.18;2.58;;;;;;;17.00;45.35;96919.59;5029770;28;20047;-62
2023/06/13 06:41:57;;;;;;;7.00;2.60;;;;;;;17.09;43.64;96911.50;5028864;28;20056;-61
2023/06/13 06:44:39;;;;;;;;;;;;;;;17.07;43.61;96921.97;5029965;28;20053;-62
2023/06/13 06:47:11;;;;;;;7.15;3.55;;;;;;;17.07;43.17;96922.78;5028947;28;19928;-61
2023/06/13 06:49:37;;;;;;;7.50;2.47;;;;;;;17.14;43.06;96927.84;5028636;28;20471;-62
2023/06/13 06:52:04;;;;;;;4.57;2.10;;;;;;;17.10;41.67;96919.41;5025560;28;21769;-61
2023/06/13 06:54:31;;;;;;;6.20;2.78;;;;;;;17.16;42.37;96925.59;5025481;28;20072;-61
2023/06/13 06:56:58;;;;;;;4.38;2.28;;;;;;;17.24;42.63;96919.41;5027022;28;20267;-61
2023/06/13 06:59:25;;;;;;;4.57;1.75;;;;;;;17.33;42.41;96919.50;5028716;28;20041;-61
2023/06/13 07:01:51;;;;;;;5.95;2.42;;;;;;;17.33;41.55;96921.41;5029582;28;20220;-61
2023/06/13 07:04:18;;;;;;;3.78;2.20;;;;;;;17.24;41.56;96918.56;5027786;28;20038;-61
2023/06/13 07:06:45;;;;;;;4.93;2.92;;;;;;;17.25;41.55;96906.53;5034438;28;20049;-60
2023/06/13 07:09:11;;;;;;;5.00;2.35;;;;;;;17.31;41.88;96909.97;5028904;28;20049;-62
2023/06/13 07:11:38;;;;;;;8.82;2.78;;;;;;;17.25;41.70;96906.53;5026900;28;20113;-61
2023/06/13 07:14:05;;;;;;;5.50;2.15;;;;;;;17.39;41.67;96903.75;5025466;28;21122;-61
2023/06/13 07:16:31;;;;;;;4.38;2.65;;;;;;;17.42;41.18;96908.59;5032244;28;20116;-62
2023/06/13 07:18:58;;;;;;;5.32;2.70;;;;;;;17.48;40.42;96903.84;5033447;28;20711;-62
2023/06/13 07:21:25;;;;;;;3.95;2.20;;;;;;;17.55;40.54;96905.03;5028415;28;20117;-62
2023/06/13 07:23:52;;;;;;;5.13;2.10;;;;;;;17.57;41.15;96907.44;5027115;28;20041;-62
2023/06/13 07:26:31;;;;;;;7.70;2.10;;;;;;;17.69;41.28;96898.69;5027885;28;20099;-62
2023/06/13 07:28:58;;;;;;;6.13;2.35;;;;;;;17.77;40.71;96910.84;5027825;28;20124;-61
2023/06/13 07:31:24;;;;;;;4.53;2.10;;;;;;;17.71;40.50;96914.81;5029592;28;20060;-61
2023/06/13 07:33:51;;;;;;;10.18;3.38;;;;;;;17.73;40.63;96915.31;5025086;28;20060;-62
2023/06/13 07:36:19;;;;;;;7.75;2.45;;;;;;;17.71;40.21;96914.81;5028175;28;20045;-61
2023/06/13 07:38:45;;;;;;;4.47;2.38;;;;;;;17.82;39.61;96910.72;5027080;28;20061;-60
2023/06/13 07:41:12;;;;;;;6.47;2.38;;;;;;;17.77;38.44;96919.84;5027244;28;20053;-61
2023/06/13 07:43:40;;;;;;;5.55;2.25;;;;;;;17.82;39.72;96910.72;5031606;28;20033;-62
2023/06/13 07:46:06;;;;;;;7.35;2.65;;;;;;;18.00;39.99;96906.16;5026067;28;20443;-62
2023/06/13 07:48:33;;;;;;;5.13;2.55;;;;;;;18.06;39.82;96904.91;5031056;28;20045;-62
2023/06/13 07:50:59;;;;;;;5.35;2.60;;;;;;;17.96;39.25;96894.22;5027447;28;20463;-61
2023/06/13 07:53:26;;;;;;;4.95;2.47;;;;;;;18.20;39.52;96896.66;5028463;28;20042;-62
2023/06/13 07:55:55;;;;;;;9.60;2.65;;;;;;;18.43;39.58;96907.56;5028123;28;20673;-61
2023/06/13 07:58:22;;;;;;;5.47;2.50;;;;;;;18.32;38.54;96898.00;5027056;28;20091;-62
2023/06/13 08:00:48;;;;;;;7.95;2.28;;;;;;;18.17;38.44;96897.25;5028834;28;20037;-61
2023/06/13 08:03:15;;;;;;;33.25;4.35;;;;;;;18.31;38.36;96905.41;5031445;28;20029;-61
2023/06/13 08:05:42;;;;;;;32.50;4.22;;;;;;;18.25;38.81;96892.97;5027024;28;20049;-62
2023/06/13 08:08:08;;;;;;;5.05;2.50;;;;;;;18.45;37.49;96886.13;5028976;28;20397;-62
2023/06/13 08:10:35;;;;;;;4.40;2.20;;;;;;;18.42;37.48;96891.41;5027363;28;20045;-61
2023/06/13 08:13:01;;;;;;;5.30;2.30;;;;;;;18.54;38.59;96897.13;5023875;28;20034;-62
2023/06/13 08:15:33;;;;;;;7.45;2.65;;;;;;;18.62;37.39;96898.31;5024401;28;20052;-63
2023/06/13 08:18:00;;;;;;;7.18;2.50;;;;;;;18.77;37.20;96885.28;5028270;28;20069;-61
2023/06/13 08:20:26;;;;;;;6.35;2.83;;;;;;;18.89;36.35;96896.44;5023745;28;20042;-61
2023/06/13 08:22:53;;;;;;;5.93;2.35;;;;;;;19.00;36.52;96887.91;5028166;28;20036;-61
2023/06/13 08:25:19;;;;;;;6.30;2.22;;;;;;;19.07;35.55;96894.59;5026723;28;20033;-61
2023/06/13 08:27:46;;;;;;;7.93;2.20;;;;;;;19.13;35.14;96894.44;5026337;28;20385;-61
2023/06/13 08:30:13;;;;;;;6.38;2.50;;;;;;;19.12;34.42;96892.81;5026501;28;20465;-62
2023/06/13 08:32:41;;;;;;;6.10;2.40;;;;;;;18.90;34.54;96889.03;5026094;28;20041;-61
2023/06/13 08:35:08;;;;;;;6.38;2.47;;;;;;;19.01;34.66;96887.59;5026403;28;20042;-62
2023/06/13 08:37:35;;;;;;;4.05;2.00;;;;;;;19.11;34.02;96894.75;5031438;28;20580;-62
2023/06/13 08:40:05;;;;;;;6.35;2.58;;;;;;;19.09;33.85;96891.53;5031547;28;20045;-61
2023/06/13 08:42:32;;;;;;;4.53;2.22;;;;;;;19.19;35.05;96896.69;5029217;28;20061;-62
2023/06/13 08:45:00;;;;;;;8.32;2.72;;;;;;;19.43;35.08;96892.72;5034378;28;20042;-61
2023/06/13 08:47:28;;;;;;;8.55;2.38;;;;;;;19.37;35.02;96877.50;5028232;28;20068;-61
2023/06/13 08:50:03;;;;;;;6.53;2.92;;;;;;;19.48;35.87;96886.22;5030270;28;20121;-61
2023/06/13 08:52:37;;;;;;;8.63;2.35;;;;;;;19.54;35.11;96892.38;5031806;28;20038;-61
2023/06/13 08:55:06;;;;;;;5.07;2.40;;;;;;;19.60;34.89;96883.66;5030433;28;20044;-61
2023/06/13 08:57:54;;;;;;;7.45;2.80;;;;;;;19.47;34.35;96888.16;5028072;28;20736;-62
2023/06/13 09:00:22;;;;;;;8.73;2.92;;;;;;;19.67;34.41;96885.91;5029658;28;20269;-62
2023/06/13 09:02:50;;;;;;;7.75;2.58;;;;;;;19.63;34.02;96884.94;5027315;28;20041;-62
2023/06/13 09:05:18;;;;;;;5.47;2.65;;;;;;;19.80;33.75;96888.81;5033079;28;20068;-61
2023/06/13 09:07:46;;;;;;;6.70;2.40;;;;;;;19.82;33.47;96887.34;5027328;28;20103;-62
2023/06/13 09:10:13;;;;;;;6.40;2.90;;;;;;;19.65;33.46;96879.94;5032812;28;20033;-61
2023/06/13 09:12:41;;;;;;;5.32;2.33;;;;;;;19.66;33.67;96881.56;5028806;28;20432;-61
2023/06/13 09:15:10;;;;;;;5.50;2.70;;;;;;;19.61;33.41;96878.97;5026771;28;20038;-62
2023/06/13 09:17:37;;;;;;;5.93;2.63;;;;;;;19.80;33.49;96886.88;5028375;28;20590;-63
2023/06/13 09:20:06;;;;;;;5.65;2.53;;;;;;;19.98;33.12;96898.66;5034492;28;20273;-61
2023/06/13 09:22:33;;;;;;;6.43;2.65;;;;;;;19.97;33.35;96890.75;5031651;28;20104;-61
2023/06/13 09:25:00;;;;;;;6.07;2.85;;;;;;;19.91;34.03;96890.09;5033128;28;20270;-62
2023/06/13 09:27:27;;;;;;;4.45;2.70;;;;;;;19.91;34.80;96886.53;5030389;28;20037;-63
2023/06/13 09:29:54;;;;;;;6.25;2.40;;;;;;;20.04;35.65;96882.03;5027657;28;20073;-63
2023/06/13 09:32:21;;;;;;;7.03;2.83;;;;;;;20.19;34.08;96865.00;5031819;28;20048;-62
2023/06/13 09:34:48;;;;;;;6.88;2.35;;;;;;;20.28;34.33;96863.03;5033659;28;21251;-62
2023/06/13 09:37:18;;;;;;;7.07;2.40;;;;;;;20.41;33.87;96879.63;5029370;28;20041;-62
2023/06/13 09:39:47;;;;;;;5.43;2.50;;;;;;;20.42;33.56;96872.22;5026902;28;20080;-62
2023/06/13 09:42:24;;;;;;;4.70;2.63;;;;;;;20.54;33.21;96866.81;5027028;28;20090;-62
2023/06/13 09:44:52;;;;;;;8.20;2.90;;;;;;;20.54;34.55;96862.13;5025757;28;20116;-61
2023/06/13 09:47:41;;;;;;;10.45;2.92;;;;;;;20.52;34.56;96858.91;5024924;28;20053;-61
2023/06/13 09:50:08;;;;;;;5.40;2.72;;;;;;;20.71;34.28;96859.63;5030791;28;20041;-61
2023/06/13 09:52:34;;;;;;;4.57;2.53;;;;;;;20.74;33.67;96858.94;5030030;28;20049;-62
2023/06/13 09:55:01;;;;;;;6.82;3.05;;;;;;;20.88;34.55;96850.50;5030165;28;20443;-61
2023/06/13 09:57:27;;;;;;;5.38;2.28;;;;;;;20.73;33.75;96852.66;5029524;28;20037;-61
2023/06/13 10:00:09;;;;;;;4.70;2.65;;;;;;;20.56;33.79;96858.25;5025821;28;20106;-61
2023/06/13 10:02:36;;;;;;;6.47;2.47;;;;;;;20.44;33.78;96856.19;5025407;28;20049;-62
2023/06/13 10:05:03;;;;;;;7.50;2.72;;;;;;;20.61;33.74;96852.56;5027672;28;20037;-60
2023/06/13 10:07:30;;;;;;;5.35;2.78;;;;;;;20.62;33.37;96845.91;5030669;28;20034;-61
2023/06/13 10:09:58;;;;;;;5.20;2.90;;;;;;;20.58;34.12;96851.28;5029677;28;20041;-62
2023/06/13 10:12:25;;;;;;;9.27;3.17;;;;;;;20.56;33.98;96845.28;5030542;28;20073;-60
2023/06/13 10:14:58;;;;;;;5.15;2.70;;;;;;;20.45;34.06;96844.06;5033721;28;20401;-62
2023/06/13 10:17:28;;;;;;;6.10;2.55;;;;;;;20.60;33.25;96837.19;5028936;28;20050;-62
2023/06/13 10:20:00;;;;;;;6.35;2.70;;;;;;;20.98;31.94;96852.06;5030026;28;20120;-62
2023/06/13 10:22:27;;;;;;;7.15;2.40;;;;;;;21.16;31.93;96859.06;5029306;28;20045;-62
2023/06/13 10:24:55;;;;;;;26.02;4.22;;;;;;;21.23;31.61;96839.25;5029488;28;20415;-60
2023/06/13 10:27:25;;;;;;;6.40;2.55;;;;;;;21.20;31.88;96850.94;5028930;28;20501;-61
2023/06/13 10:30:13;;;;;;;4.38;2.30;;;;;;;21.09;32.47;96836.78;5025696;28;20045;-62
2023/06/13 10:33:04;;;;;;;5.45;2.47;;;;;;;21.35;30.91;96834.97;5029420;28;20048;-62
2023/06/13 10:36:04;;;;;;;10.32;2.75;;;;;;;21.31;29.65;96845.84;5030157;28;20056;-61
2023/06/13 10:39:03;;;;;;;4.50;2.83;;;;;;;21.35;29.76;96846.78;5030079;28;20045;-62
2023/06/13 10:41:51;;;;;;;5.22;2.65;;;;;;;21.43;29.47;96856.09;5025318;28;20285;-61
2023/06/13 10:44:24;;;;;;;4.93;2.60;;;;;;;21.58;30.08;96843.66;5026671;28;20056;-62
2023/06/13 10:46:51;;;;;;;6.20;2.75;;;;;;;21.73;30.44;96850.53;5029750;28;20528;-62
2023/06/13 10:49:17;;;;;;;6.97;2.95;;;;;;;21.56;30.79;96845.97;5027996;28;20335;-61
2023/06/13 10:51:45;;;;;;;4.97;2.63;;;;;;;21.54;31.15;96842.75;5026810;28;20056;-62
2023/06/13 10:54:15;;;;;;;4.35;2.20;;;;;;;21.69;30.74;96835.78;5027685;28;20044;-63
2023/06/13 10:56:43;;;;;;;5.07;2.38;;;;;;;21.74;29.86;96841.13;5026619;28;20263;-63
2023/06/13 10:59:13;;;;;;;8.07;2.85;;;;;;;21.96;30.47;96826.16;5027465;28;20400;-61
2023/06/13 11:01:41;;;;;;;4.75;2.47;;;;;;;21.83;29.45;96833.56;5030624;28;20041;-60
2023/06/13 11:04:19;;;;;;;4.63;2.53;;;;;;;21.85;28.92;96830.47;5034675;28;20099;-62
2023/06/13 11:06:49;;;;;;;5.80;2.80;;;;;;;21.99;28.91;96834.88;5027706;28;20455;-62
2023/06/13 11:09:20;;;;;;;4.75;2.30;;;;;;;21.96;28.97;96825.34;5029246;28;20056;-61
2023/06/13 11:11:57;;;;;;;6.43;3.08;;;;;;;22.07;29.37;96828.47;5029022;28;20456;-61
2023/06/13 11:14:31;;;;;;;5.43;2.70;;;;;;;22.28;28.87;96833.09;5026651;28;20045;-61
2023/06/13 11:16:58;;;;;;;5.00;2.60;;;;;;;22.42;28.93;96824.50;5027812;28;20069;-62
2023/06/13 11:19:29;;;;;;;4.88;2.85;;;;;;;22.44;29.67;96824.97;5028893;28;20290;-62
2023/06/13 11:21:59;;;;;;;6.82;2.90;;;;;;;22.31;28.74;96821.38;5026572;28;20527;-62
2023/06/13 11:24:33;;;;;;;5.50;2.63;;;;;;;22.44;28.79;96827.72;5024040;28;20052;-62
2023/06/13 11:27:03;;;;;;;4.57;2.50;;;;;;;22.50;28.86;96833.81;5025172;28;20053;-61
2023/06/13 11:29:36;;;;;;;7.72;2.50;;;;;;;22.74;28.70;96825.56;5024244;28;20140;-62
2023/06/13 11:32:04;;;;;;;8.75;2.67;;;;;;;22.46;28.55;96817.97;5027293;28;20052;-61
2023/06/13 11:34:33;;;;;;;4.20;2.92;;;;;;;22.70;28.76;96804.53;5026136;28;20033;-62
2023/06/13 11:37:12;;;;;;;5.07;2.30;;;;;;;23.02;28.67;96806.66;5027366;28;20045;-61
2023/06/13 11:39:41;;;;;;;4.93;2.58;;;;;;;23.07;28.39;96800.91;5026099;28;20425;-62
2023/06/13 11:42:10;;;;;;;19.73;3.53;;;;;;;23.18;28.97;96804.78;5028942;28;20051;-62